createdAt,value
2022-12-13T00:01:01.429Z,22.92
2022-12-13T00:03:30.394Z,21.58
2022-12-13T00:06:00.008Z,22.67
2022-12-13T00:08:28.396Z,21.92
2022-12-13T00:11:01.308Z,20.45
2022-12-13T00:13:29.623Z,20.48
2022-12-13T00:15:58.412Z,21.30
2022-12-13T00:18:26.830Z,19.88
2022-12-13T00:20:55.180Z,21.90
2022-12-13T00:23:25.599Z,19.85
2022-12-13T00:25:53.773Z,20.10
2022-12-13T00:28:22.004Z,20.35
2022-12-13T00:30:50.273Z,20.13
2022-12-13T00:33:18.548Z,20.75
2022-12-13T00:35:46.841Z,20.02
2022-12-13T00:38:14.948Z,16.48
2022-12-13T00:40:44.705Z,16.55
2022-12-13T00:43:12.893Z,17.42
2022-12-13T00:45:41.304Z,15.75
2022-12-13T00:48:09.587Z,15.15
2022-12-13T00:50:38.844Z,14.82
2022-12-13T00:53:07.249Z,16.00
2022-12-13T00:55:35.596Z,16.05
2022-12-13T00:58:05.124Z,15.65
2022-12-13T01:00:33.430Z,17.02
2022-12-13T01:03:20.533Z,15.18
2022-12-13T01:06:14.528Z,15.93
2022-12-13T01:08:37.345Z,15.18
2022-12-13T01:11:05.751Z,14.82
2022-12-13T01:13:35.328Z,14.88
2022-12-13T01:16:03.783Z,14.60
2022-12-13T01:18:31.968Z,13.95
2022-12-13T01:21:00.897Z,13.95
2022-12-13T01:23:29.136Z,12.38
2022-12-13T01:25:57.515Z,15.02
2022-12-13T01:28:25.801Z,13.35
2022-12-13T01:30:59.698Z,14.50
2022-12-13T01:33:28.098Z,13.77
2022-12-13T01:35:56.193Z,13.43
2022-12-13T01:38:26.129Z,14.02
2022-12-13T01:40:59.000Z,13.05
2022-12-13T01:43:30.460Z,12.32
2022-12-13T01:46:00.248Z,14.05
2022-12-13T01:48:29.649Z,12.75
2022-12-13T01:50:59.070Z,12.85
2022-12-13T01:53:29.872Z,12.13
2022-12-13T01:55:59.432Z,12.13
2022-12-13T01:58:28.269Z,11.10
2022-12-13T02:00:56.578Z,13.40
2022-12-13T02:03:26.549Z,12.82
2022-12-13T02:05:55.998Z,13.27
2022-12-13T02:08:29.779Z,13.13
2022-12-13T02:10:58.363Z,10.88
2022-12-13T02:13:26.613Z,12.55
2022-12-13T02:16:01.639Z,10.77
2022-12-13T02:18:50.097Z,10.90
2022-12-13T02:21:21.545Z,12.32
2022-12-13T02:24:09.179Z,11.50
2022-12-13T02:26:49.220Z,10.50
2022-12-13T02:29:42.245Z,10.63
2022-12-13T02:32:15.872Z,10.15
2022-12-13T02:34:46.148Z,9.60
2022-12-13T02:37:17.584Z,9.75
2022-12-13T02:39:50.098Z,11.15
2022-12-13T02:42:21.413Z,9.95
2022-12-13T02:44:52.120Z,9.55
2022-12-13T02:47:23.257Z,10.07
2022-12-13T02:49:53.528Z,10.35
2022-12-13T02:52:24.310Z,9.90
2022-12-13T02:54:52.717Z,9.77
2022-12-13T02:57:31.003Z,10.55
2022-12-13T02:59:59.685Z,8.90
2022-12-13T03:02:33.040Z,9.48
2022-12-13T03:05:21.393Z,8.10
2022-12-13T03:07:52.374Z,8.73
2022-12-13T03:10:22.369Z,9.98
2022-12-13T03:13:09.877Z,7.93
2022-12-13T03:15:41.067Z,8.65
2022-12-13T03:18:15.767Z,10.00
2022-12-13T03:20:47.033Z,8.13
2022-12-13T03:23:15.468Z,8.07
2022-12-13T03:25:43.684Z,9.48
2022-12-13T03:28:12.789Z,8.15
2022-12-13T03:30:41.062Z,7.50
2022-12-13T03:33:10.790Z,8.18
2022-12-13T03:35:44.673Z,8.45
2022-12-13T03:38:22.395Z,8.27
2022-12-13T03:40:53.189Z,8.27
2022-12-13T03:43:21.633Z,7.60
2022-12-13T03:45:51.573Z,7.25
2022-12-13T03:48:22.504Z,6.75
2022-12-13T03:50:51.679Z,7.53
2022-12-13T03:53:22.431Z,7.32
2022-12-13T03:56:01.763Z,7.30
2022-12-13T03:58:34.963Z,8.70
2022-12-13T04:01:09.322Z,8.23
2022-12-13T04:03:39.745Z,7.53
2022-12-13T04:06:08.265Z,7.30
2022-12-13T04:08:36.753Z,7.35
2022-12-13T04:11:25.956Z,8.13
2022-12-13T04:13:53.174Z,7.47
2022-12-13T04:16:21.517Z,7.53
2022-12-13T04:18:51.619Z,7.53
2022-12-13T04:21:19.864Z,6.75
2022-12-13T04:23:48.089Z,6.57
2022-12-13T04:26:16.342Z,6.85
2022-12-13T04:28:47.047Z,7.10
2022-12-13T04:31:19.336Z,6.78
2022-12-13T04:33:47.632Z,6.95
2022-12-13T04:36:32.351Z,6.65
2022-12-13T04:39:02.272Z,6.35
2022-12-13T04:41:34.240Z,6.30
2022-12-13T04:44:03.159Z,6.00
2022-12-13T04:46:31.408Z,8.82
2022-12-13T04:48:59.775Z,6.70
2022-12-13T04:51:30.074Z,6.68
2022-12-13T04:54:23.868Z,5.95
2022-12-13T04:56:46.663Z,6.47
2022-12-13T04:59:14.862Z,6.20
2022-12-13T05:01:43.219Z,6.75
2022-12-13T05:04:11.350Z,6.50
2022-12-13T05:06:41.765Z,6.78
2022-12-13T05:09:11.402Z,6.82
2022-12-13T05:11:45.913Z,6.57
2022-12-13T05:14:23.214Z,7.03
2022-12-13T05:16:52.168Z,6.70
2022-12-13T05:19:20.681Z,6.95
2022-12-13T05:21:51.189Z,6.38
2022-12-13T05:24:19.851Z,6.70
2022-12-13T05:26:48.048Z,6.20
2022-12-13T05:29:16.279Z,6.50
2022-12-13T05:31:45.119Z,6.43
2022-12-13T05:34:13.412Z,6.97
2022-12-13T05:36:42.191Z,7.03
2022-12-13T05:39:28.540Z,6.60
2022-12-13T05:42:01.180Z,6.47
2022-12-13T05:44:32.007Z,6.63
2022-12-13T05:47:02.246Z,6.88
2022-12-13T05:49:32.298Z,6.82
2022-12-13T05:52:00.653Z,6.50
2022-12-13T05:54:30.286Z,6.18
2022-12-13T05:56:58.574Z,6.10
2022-12-13T05:59:26.877Z,6.60
2022-12-13T06:01:55.115Z,6.32
2022-12-13T06:04:23.651Z,6.93
2022-12-13T06:06:52.613Z,7.43
2022-12-13T06:09:21.211Z,6.70
2022-12-13T06:11:51.373Z,7.57
2022-12-13T06:14:21.944Z,6.68
2022-12-13T06:16:53.044Z,6.80
2022-12-13T06:19:21.926Z,6.55
2022-12-13T06:21:50.261Z,9.45
2022-12-13T06:24:19.216Z,6.75
2022-12-13T06:26:47.409Z,8.80
2022-12-13T06:29:24.144Z,9.82
2022-12-13T06:32:01.281Z,8.30
2022-12-13T06:34:31.529Z,16.50
2022-12-13T06:37:00.600Z,19.85
2022-12-13T06:39:33.254Z,19.42
2022-12-13T06:42:02.966Z,22.17
2022-12-13T06:44:32.496Z,29.23
2022-12-13T06:47:12.156Z,35.20
2022-12-13T06:49:42.470Z,38.47
2022-12-13T06:52:12.725Z,36.83
2022-12-13T06:54:41.140Z,34.75
2022-12-13T06:57:09.525Z,32.67
2022-12-13T06:59:39.617Z,30.60
2022-12-13T07:02:15.285Z,29.27
2022-12-13T07:04:54.511Z,29.45
2022-12-13T07:07:22.705Z,29.95
2022-12-13T07:09:51.009Z,29.52
2022-12-13T07:12:21.119Z,28.65
2022-12-13T07:14:51.159Z,31.75
2022-12-13T07:17:32.936Z,34.40
2022-12-13T07:20:04.721Z,50.63
2022-12-13T07:22:34.814Z,46.67
2022-12-13T07:25:05.145Z,44.88
2022-12-13T07:27:33.770Z,41.75
2022-12-13T07:30:03.767Z,43.28
2022-12-13T07:32:31.944Z,42.85
2022-12-13T07:35:00.159Z,40.20
2022-12-13T07:37:29.774Z,39.65
2022-12-13T07:40:03.965Z,41.25
2022-12-13T07:42:33.291Z,39.92
2022-12-13T07:45:01.477Z,38.30
2022-12-13T07:47:32.784Z,35.65
2022-12-13T07:50:01.633Z,38.60
2022-12-13T07:52:30.144Z,39.13
2022-12-13T07:54:58.646Z,37.05
2022-12-13T07:57:26.927Z,33.85
2022-12-13T07:59:55.243Z,34.97
2022-12-13T08:02:23.483Z,35.25
2022-12-13T08:04:54.728Z,33.63
2022-12-13T08:07:23.537Z,32.88
2022-12-13T08:09:53.200Z,34.90
2022-12-13T08:12:22.607Z,32.70
2022-12-13T08:14:53.292Z,32.50
2022-12-13T08:17:22.437Z,31.00
2022-12-13T08:19:50.907Z,29.38
2022-12-13T08:22:23.814Z,30.60
2022-12-13T08:24:52.351Z,31.08
2022-12-13T08:27:20.522Z,48.03
2022-12-13T08:29:48.734Z,47.58
2022-12-13T08:32:16.985Z,45.65
2022-12-13T08:34:45.585Z,49.75
2022-12-13T08:37:13.769Z,54.30
2022-12-13T08:39:44.702Z,47.15
2022-12-13T08:42:16.251Z,52.42
2022-12-13T08:44:47.397Z,48.70
2022-12-13T08:47:22.861Z,49.83
2022-12-13T08:50:02.395Z,49.53
2022-12-13T08:52:32.295Z,50.65
2022-12-13T08:55:11.139Z,33.88
2022-12-13T08:57:39.397Z,30.55
2022-12-13T09:00:08.684Z,30.63
2022-12-13T09:02:38.412Z,35.78
2022-12-13T09:05:07.966Z,36.67
2022-12-13T09:07:36.680Z,32.50
2022-12-13T09:10:25.348Z,32.00
2022-12-13T09:13:00.983Z,37.40
2022-12-13T09:15:34.344Z,39.90
2022-12-13T09:18:04.873Z,49.33
2022-12-13T09:20:41.683Z,46.28
2022-12-13T09:23:22.960Z,56.00
2022-12-13T09:26:05.183Z,58.25
2022-12-13T09:28:37.101Z,71.20
2022-12-13T09:31:08.619Z,74.40
2022-12-13T09:33:40.834Z,63.92
2022-12-13T09:36:11.466Z,70.68
2022-12-13T09:38:39.706Z,65.70
2022-12-13T09:41:19.678Z,64.75
2022-12-13T09:43:50.653Z,60.83
2022-12-13T09:46:24.573Z,65.82
2022-12-13T09:49:01.765Z,65.57
2022-12-13T09:51:43.783Z,62.03
2022-12-13T09:54:17.923Z,63.25
2022-12-13T09:56:51.325Z,65.28
2022-12-13T09:59:23.005Z,57.70
2022-12-13T10:01:51.385Z,58.30
2022-12-13T10:04:19.628Z,58.65
2022-12-13T10:06:47.871Z,54.60
2022-12-13T10:09:16.288Z,55.75
2022-12-13T10:11:50.837Z,54.05
2022-12-13T10:14:23.201Z,50.67
2022-12-13T10:16:53.012Z,51.17
2022-12-13T10:19:29.155Z,53.53
2022-12-13T10:22:01.036Z,49.20
2022-12-13T10:24:37.063Z,48.30
2022-12-13T10:27:12.581Z,47.15
2022-12-13T10:30:00.252Z,46.63
2022-12-13T10:32:28.478Z,44.15
2022-12-13T10:34:59.248Z,43.33
2022-12-13T10:37:29.085Z,45.00
2022-12-13T10:39:57.357Z,42.70
2022-12-13T10:42:30.527Z,42.95
2022-12-13T10:45:15.089Z,43.78
2022-12-13T10:47:43.800Z,41.78
2022-12-13T10:50:23.895Z,41.25
2022-12-13T10:52:52.224Z,37.42
2022-12-13T10:55:26.066Z,39.78
2022-12-13T10:57:54.764Z,41.63
2022-12-13T11:00:49.376Z,37.33
2022-12-13T11:03:30.577Z,38.00
2022-12-13T11:06:06.462Z,35.78
2022-12-13T11:08:34.790Z,34.17
2022-12-13T11:11:03.584Z,36.33
2022-12-13T11:13:37.008Z,33.83
2022-12-13T11:16:15.738Z,33.15
2022-12-13T11:18:44.041Z,32.33
2022-12-13T11:21:12.927Z,32.00
2022-12-13T11:23:41.418Z,30.65
2022-12-13T11:26:11.061Z,32.50
2022-12-13T11:28:58.003Z,30.48
2022-12-13T11:31:30.137Z,29.48
2022-12-13T11:34:01.712Z,29.05
2022-12-13T11:36:34.790Z,29.38
2022-12-13T11:39:10.661Z,28.00
2022-12-13T11:41:40.795Z,27.23
2022-12-13T11:44:13.074Z,24.27
2022-12-13T11:46:44.549Z,27.63
2022-12-13T11:49:14.829Z,26.58
2022-12-13T11:51:44.406Z,26.70
2022-12-13T11:54:23.639Z,25.33
2022-12-13T11:57:00.478Z,27.23
2022-12-13T11:59:39.636Z,25.45
2022-12-13T12:02:16.580Z,23.88
2022-12-13T12:04:47.124Z,24.38
2022-12-13T12:07:32.460Z,24.05
2022-12-13T12:10:06.616Z,23.50
2022-12-13T12:12:35.829Z,23.10
2022-12-13T12:15:15.804Z,23.80
2022-12-13T12:17:46.297Z,21.35
2022-12-13T12:20:23.927Z,21.77
2022-12-13T12:22:56.396Z,20.75
2022-12-13T12:25:27.436Z,20.95
2022-12-13T12:28:01.293Z,20.60
2022-12-13T12:30:35.728Z,18.88
2022-12-13T12:33:10.141Z,19.98
2022-12-13T12:35:53.276Z,19.65
2022-12-13T12:38:53.698Z,19.48
2022-12-13T12:41:29.771Z,18.73
2022-12-13T12:44:04.908Z,17.75
2022-12-13T12:47:18.079Z,17.58
2022-12-13T12:49:49.128Z,16.65
2022-12-13T12:52:21.450Z,16.65
2022-12-13T12:54:54.043Z,15.93
2022-12-13T12:57:24.513Z,17.50
2022-12-13T13:00:01.978Z,17.90
2022-12-13T13:02:33.100Z,16.67
2022-12-13T13:05:04.319Z,16.00
2022-12-13T13:07:39.741Z,17.52
2022-12-13T13:10:25.780Z,13.38
2022-12-13T13:13:12.872Z,14.50
2022-12-13T13:15:57.545Z,19.52
2022-12-13T13:18:49.296Z,17.48
2022-12-13T13:21:33.170Z,29.77
2022-12-13T13:24:12.071Z,21.88
2022-12-13T13:26:42.672Z,28.63
2022-12-13T13:29:38.551Z,33.10
2022-12-13T13:32:30.427Z,30.90
2022-12-13T13:35:50.786Z,40.63
2022-12-13T13:38:55.567Z,40.92
2022-12-13T13:42:09.356Z,44.78
2022-12-13T13:44:57.037Z,44.25
2022-12-13T13:47:43.410Z,45.15
2022-12-13T13:50:46.965Z,44.90
2022-12-13T13:53:50.584Z,46.28
2022-12-13T13:56:35.907Z,51.17
2022-12-13T13:59:45.021Z,48.40
2022-12-13T14:02:53.442Z,49.33
2022-12-13T14:05:58.164Z,49.67
2022-12-13T14:08:32.562Z,48.97
2022-12-13T14:11:12.661Z,43.30
2022-12-13T14:14:22.119Z,43.42
2022-12-13T14:17:38.986Z,44.78
2022-12-13T14:20:28.388Z,53.15
2022-12-13T14:22:59.156Z,49.75
2022-12-13T14:25:52.209Z,56.08
2022-12-13T14:28:28.016Z,56.25
2022-12-13T14:30:57.514Z,62.85
2022-12-13T14:33:27.101Z,55.95
2022-12-13T14:35:57.884Z,61.80
2022-12-13T14:38:30.167Z,64.28
2022-12-13T14:40:59.859Z,72.28
2022-12-13T14:43:29.163Z,82.97
2022-12-13T14:45:58.299Z,68.72
2022-12-13T14:48:28.798Z,70.88
2022-12-13T14:50:59.383Z,77.35
2022-12-13T14:53:29.124Z,70.63
2022-12-13T14:56:06.105Z,73.47
2022-12-13T14:58:34.220Z,82.38
2022-12-13T15:01:03.786Z,83.47
2022-12-13T15:03:32.474Z,93.43
2022-12-13T15:06:02.487Z,93.78
2022-12-13T15:08:30.688Z,99.18
2022-12-13T15:10:59.766Z,103.70
2022-12-13T15:13:30.788Z,106.88
2022-12-13T15:16:01.334Z,106.80
2022-12-13T15:18:36.354Z,100.43
2022-12-13T15:21:21.884Z,104.07
2022-12-13T15:23:53.069Z,107.10
2022-12-13T15:26:27.731Z,106.15
2022-12-13T15:28:59.832Z,98.40
2022-12-13T15:31:29.175Z,104.25
2022-12-13T15:34:28.216Z,99.88
2022-12-13T15:37:01.116Z,104.38
2022-12-13T15:39:31.138Z,99.40
2022-12-13T15:42:01.460Z,81.43
2022-12-13T15:44:30.770Z,82.55
2022-12-13T15:47:02.232Z,79.75
2022-12-13T15:49:33.897Z,85.43
2022-12-13T15:52:05.191Z,77.85
2022-12-13T15:54:33.472Z,72.53
2022-12-13T15:57:13.747Z,70.72
2022-12-13T15:59:42.134Z,75.72
2022-12-13T16:02:15.255Z,73.28
2022-12-13T16:04:43.552Z,71.05
2022-12-13T16:07:22.338Z,76.82
2022-12-13T16:09:50.771Z,72.18
2022-12-13T16:12:22.703Z,77.20
2022-12-13T16:14:51.269Z,73.72
2022-12-13T16:17:25.724Z,74.57
2022-12-13T16:19:54.608Z,77.50
2022-12-13T16:22:24.929Z,76.68
2022-12-13T16:24:53.527Z,79.50
2022-12-13T16:27:21.772Z,73.85
2022-12-13T16:29:50.156Z,77.88
2022-12-13T16:32:18.872Z,75.15
2022-12-13T16:34:47.667Z,76.57
2022-12-13T16:37:26.083Z,79.63
2022-12-13T16:40:02.007Z,76.93
2022-12-13T16:42:30.817Z,78.07
2022-12-13T16:45:24.783Z,82.72
2022-12-13T16:47:49.519Z,87.63
2022-12-13T16:50:18.677Z,87.55
2022-12-13T16:52:47.231Z,88.97
2022-12-13T16:55:17.044Z,85.18
2022-12-13T16:57:58.951Z,91.97
2022-12-13T17:00:27.815Z,87.40
2022-12-13T17:02:55.947Z,83.65
2022-12-13T17:05:24.470Z,83.53
2022-12-13T17:07:52.655Z,86.35
2022-12-13T17:10:22.636Z,87.00
2022-12-13T17:12:51.069Z,88.03
2022-12-13T17:15:19.650Z,100.57
2022-12-13T17:17:48.158Z,98.82
2022-12-13T17:20:18.242Z,104.38
2022-12-13T17:22:46.847Z,104.13
2022-12-13T17:25:15.224Z,97.25
2022-12-13T17:27:45.731Z,97.45
2022-12-13T17:30:16.421Z,93.60
2022-12-13T17:32:44.664Z,96.57
2022-12-13T17:35:17.792Z,96.03
2022-12-13T17:37:46.969Z,90.95
2022-12-13T17:40:17.043Z,97.15
2022-12-13T17:42:47.152Z,90.03
2022-12-13T17:45:17.038Z,92.13
2022-12-13T17:47:45.396Z,88.72
2022-12-13T17:50:14.233Z,85.35
2022-12-13T17:52:42.449Z,80.22
2022-12-13T17:55:16.431Z,80.28
2022-12-13T17:57:47.649Z,77.03
2022-12-13T18:00:17.100Z,73.35
2022-12-13T18:02:55.148Z,74.60
2022-12-13T18:05:26.190Z,74.65
2022-12-13T18:07:54.422Z,76.18
2022-12-13T18:10:27.910Z,69.55
2022-12-13T18:12:59.537Z,72.15
2022-12-13T18:15:27.653Z,71.55
2022-12-13T18:18:13.140Z,65.60
2022-12-13T18:20:41.459Z,68.85
2022-12-13T18:23:09.615Z,63.10
2022-12-13T18:25:37.807Z,62.70
2022-12-13T18:28:09.400Z,60.17
2022-12-13T18:30:37.713Z,60.38
2022-12-13T18:33:06.355Z,58.80
2022-12-13T18:35:34.916Z,54.58
2022-12-13T18:38:03.519Z,54.75
2022-12-13T18:40:32.630Z,54.70
2022-12-13T18:43:00.850Z,59.67
2022-12-13T18:45:30.577Z,61.35
2022-12-13T18:47:59.132Z,66.63
2022-12-13T18:50:27.590Z,63.05
2022-12-13T18:52:55.901Z,59.28
2022-12-13T18:55:24.362Z,65.55
2022-12-13T18:57:52.805Z,66.03
2022-12-13T19:00:21.676Z,62.13
2022-12-13T19:02:51.385Z,61.45
2022-12-13T19:05:19.948Z,59.97
2022-12-13T19:07:48.528Z,58.92
2022-12-13T19:10:17.842Z,56.63
2022-12-13T19:12:46.252Z,58.60
2022-12-13T19:15:16.335Z,61.33
2022-12-13T19:17:44.768Z,65.93
2022-12-13T19:20:15.391Z,60.17
2022-12-13T19:22:44.394Z,60.53
2022-12-13T19:25:13.557Z,61.08
2022-12-13T19:27:41.881Z,58.17
2022-12-13T19:30:11.949Z,60.30
2022-12-13T19:32:40.218Z,57.85
2022-12-13T19:35:09.379Z,55.60
2022-12-13T19:37:39.589Z,59.55
2022-12-13T19:40:09.449Z,64.35
2022-12-13T19:42:37.694Z,65.47
2022-12-13T19:45:06.541Z,63.20
2022-12-13T19:47:36.386Z,58.67
2022-12-13T19:50:04.965Z,60.97
2022-12-13T19:52:34.854Z,61.88
2022-12-13T19:55:04.423Z,62.55
2022-12-13T19:57:33.479Z,65.07
2022-12-13T20:00:01.847Z,68.40
2022-12-13T20:02:30.146Z,71.03
2022-12-13T20:04:58.426Z,68.70
2022-12-13T20:07:26.816Z,68.95
2022-12-13T20:09:55.359Z,66.93
2022-12-13T20:12:24.882Z,68.95
2022-12-13T20:14:55.703Z,66.40
2022-12-13T20:17:24.047Z,66.72
2022-12-13T20:19:52.255Z,68.57
2022-12-13T20:22:20.623Z,72.50
2022-12-13T20:24:48.772Z,70.35
2022-12-13T20:27:19.038Z,72.18
2022-12-13T20:29:50.214Z,71.60
2022-12-13T20:32:20.936Z,75.38
2022-12-13T20:34:54.357Z,73.70
2022-12-13T20:37:25.104Z,73.63
2022-12-13T20:39:53.295Z,72.25
2022-12-13T20:42:21.653Z,73.22
2022-12-13T20:44:51.201Z,75.82
2022-12-13T20:47:19.448Z,75.28
2022-12-13T20:49:48.305Z,73.72
2022-12-13T20:52:17.269Z,75.05
2022-12-13T20:54:45.467Z,76.60
2022-12-13T20:57:13.644Z,72.72
2022-12-13T20:59:41.818Z,75.03
2022-12-13T21:02:14.795Z,68.95
2022-12-13T21:04:43.128Z,74.85
2022-12-13T21:07:11.218Z,75.95
2022-12-13T21:09:39.400Z,73.55
2022-12-13T21:12:10.585Z,74.65
2022-12-13T21:14:38.753Z,74.95
2022-12-13T21:17:09.940Z,70.55
2022-12-13T21:19:40.964Z,71.22
2022-12-13T21:22:09.195Z,75.07
2022-12-13T21:24:37.317Z,71.00
2022-12-13T21:27:06.806Z,75.03
2022-12-13T21:29:34.922Z,73.13
2022-12-13T21:32:03.519Z,70.40
2022-12-13T21:34:31.646Z,75.78
2022-12-13T21:37:01.281Z,75.75
2022-12-13T21:39:29.794Z,73.25
2022-12-13T21:41:57.879Z,75.03
2022-12-13T21:44:26.101Z,75.65
2022-12-13T21:47:11.943Z,75.82
2022-12-13T21:49:41.161Z,76.55
2022-12-13T21:52:10.847Z,75.30
2022-12-13T21:54:39.129Z,77.15
2022-12-13T21:57:24.846Z,74.32
2022-12-13T21:59:53.012Z,76.50
2022-12-13T22:02:21.214Z,76.15
2022-12-13T22:04:50.008Z,75.88
2022-12-13T22:07:20.214Z,75.90
2022-12-13T22:09:48.764Z,75.57
2022-12-13T22:12:22.040Z,77.35
2022-12-13T22:14:50.324Z,76.75
2022-12-13T22:17:19.596Z,71.13
2022-12-13T22:19:48.520Z,72.90
2022-12-13T22:22:19.357Z,72.22
2022-12-13T22:24:53.209Z,72.53
2022-12-13T22:27:24.105Z,69.90
2022-12-13T22:29:52.648Z,72.90
2022-12-13T22:32:20.843Z,69.07
2022-12-13T22:34:49.280Z,69.35
2022-12-13T22:37:17.363Z,68.95
2022-12-13T22:39:46.916Z,67.65
2022-12-13T22:42:15.526Z,67.57
2022-12-13T22:44:43.696Z,66.25
2022-12-13T22:47:11.880Z,66.18
2022-12-13T22:49:40.143Z,63.60
2022-12-13T22:52:08.339Z,65.22
2022-12-13T22:54:36.908Z,62.03
2022-12-13T22:57:06.459Z,64.13
2022-12-13T22:59:34.641Z,63.78
2022-12-13T23:02:04.027Z,61.42
2022-12-13T23:04:35.268Z,58.60
2022-12-13T23:07:03.533Z,60.10
2022-12-13T23:09:31.841Z,57.17
2022-12-13T23:12:17.527Z,59.72
2022-12-13T23:14:47.150Z,56.50
2022-12-13T23:17:15.403Z,62.58
2022-12-13T23:19:51.525Z,52.83
2022-12-13T23:22:21.837Z,55.33
2022-12-13T23:24:50.225Z,55.00
2022-12-13T23:27:18.469Z,54.83
2022-12-13T23:29:47.979Z,53.35
2022-12-13T23:32:16.201Z,51.35
2022-12-13T23:34:44.300Z,53.70
2022-12-13T23:37:12.478Z,51.17
2022-12-13T23:39:40.618Z,51.10
2022-12-13T23:42:08.699Z,49.33
2022-12-13T23:44:37.627Z,50.25
2022-12-13T23:47:07.118Z,49.25
2022-12-13T23:49:35.452Z,49.85
2022-12-13T23:52:03.545Z,44.85
2022-12-13T23:54:31.856Z,47.28
2022-12-13T23:57:00.140Z,45.80
2022-12-13T23:59:28.750Z,44.90
